Aviation Digital Data Service (ADDS)

Output produced by METARs form (0042 UTC 19 October 2019)
found at http://www.aviationweather.gov/metar/data/
 
Forecast for: ZYTX (SHENYANG/TAOKIAN, CN)
Text: TAF ZYTX 181905Z 1900/1924 21003MPS 6000 NSC TX19/1906Z TN09/1921Z
Forecast period: 0000 UTC 19 October 2019 to 0000 UTC 20 October 2019
Forecast type: FROM: standard forecast or significant change
Winds: from the SSW (210 degrees) at 7 MPH (6 knots; 3.1 m/s)
Visibility: 4 miles (6 km)
Ceiling: unknown
Clouds: missing
Weather: no significant weather forecast for this period